Terminal Aerodrome Forecast
Issued by NWS

Home | Current Version | Previous Version | Text Only | Print | Product List | Glossary On
Versions: 1 2 3 4 5 6 7 8 9 10 11 12 13 14 15 16
000
FTUS41 KCAR 280241 AAA
TAFBHB
TAF AMD
KBHB 280241Z 2803/2824 01014G25KT P6SM BKN025
     FM280500 02015KT P6SM OVC025
     FM281100 01013G22KT P6SM BKN050
      AMD LTD TO CLD VIS AND WIND=

USA.gov is the U.S. government's official web portal to all federal, state and local government web resources and services.